Terminal Aerodrome Forecast
Issued by NWS

Home | Current Version | Previous Version | Text Only | Print | Product List | Glossary On
Versions: 1 2 3 4 5 6 7 8 9 10 11 12 13 14 15 16 17 18 19 20 21 22 23 24 25 26 27 28 29 30 31 32 33 34 35
000
FTUS45 KPSR 072340 CCA
TAFIWA
TAF COR
KIWA 072340Z 0800/0824 27008KT P6SM FEW090
     FM080700 12005KT P6SM FEW120
     FM081900 19011KT P6SM FEW120
      AMD LTD TO CLD VIS AND WIND 0803/0813=

USA.gov is the U.S. government's official web portal to all federal, state and local government web resources and services.